createdAt,value
2023-02-19T00:04:56.418Z,0
2023-02-19T00:11:19.370Z,0
2023-02-19T00:17:39.409Z,0
2023-02-19T00:24:02.365Z,0
2023-02-19T00:30:22.417Z,0
2023-02-19T00:36:45.357Z,0
2023-02-19T00:43:05.383Z,0
2023-02-19T00:49:28.380Z,0
2023-02-19T00:55:48.490Z,0
2023-02-19T01:02:11.390Z,0
2023-02-19T01:08:31.463Z,0
2023-02-19T01:14:54.401Z,0
2023-02-19T01:21:14.401Z,0
2023-02-19T01:27:37.349Z,0
2023-02-19T01:33:57.485Z,0
2023-02-19T01:40:20.377Z,0
2023-02-19T01:46:40.517Z,0
2023-02-19T01:53:03.396Z,0
2023-02-19T01:59:23.456Z,0
2023-02-19T02:05:46.392Z,0
2023-02-19T02:12:06.419Z,0
2023-02-19T02:18:29.407Z,0
2023-02-19T02:24:49.414Z,0
2023-02-19T02:31:12.804Z,0
2023-02-19T02:37:32.428Z,0
2023-02-19T02:43:55.374Z,0
2023-02-19T02:50:15.353Z,0
2023-02-19T02:56:38.435Z,0
2023-02-19T03:02:58.331Z,0
2023-02-19T03:09:21.365Z,0
2023-02-19T03:15:41.371Z,0
2023-02-19T03:22:04.368Z,0
2023-02-19T03:28:24.386Z,0
2023-02-19T03:34:47.420Z,0
2023-02-19T03:41:07.435Z,0
2023-02-19T03:47:30.488Z,0
2023-02-19T03:53:50.353Z,0
2023-02-19T04:00:13.430Z,0
2023-02-19T04:06:33.372Z,0
2023-02-19T04:12:56.493Z,0
2023-02-19T04:19:16.394Z,0
2023-02-19T04:42:58.269Z,0
2023-02-19T04:49:21.364Z,0
2023-02-19T04:55:41.414Z,0
2023-02-19T05:02:04.330Z,0
2023-02-19T05:08:24.396Z,0
2023-02-19T05:14:47.339Z,0
2023-02-19T05:21:07.349Z,0
2023-02-19T05:27:30.409Z,0
2023-02-19T05:33:50.345Z,0
2023-02-19T05:40:13.366Z,0
2023-02-19T05:46:33.421Z,0
2023-02-19T05:52:56.362Z,0
2023-02-19T05:59:17.388Z,0
2023-02-19T06:05:40.381Z,0
2023-02-19T06:12:00.333Z,0
2023-02-19T06:18:23.351Z,0
2023-02-19T06:24:43.347Z,2
2023-02-19T06:31:06.405Z,11
2023-02-19T06:37:26.397Z,12
2023-02-19T06:43:49.342Z,43
2023-02-19T06:50:09.367Z,81
2023-02-19T06:56:32.345Z,79
2023-02-19T07:02:52.594Z,93
2023-02-19T07:09:15.324Z,189
2023-02-19T07:15:35.349Z,144
2023-02-19T07:21:58.397Z,204
2023-02-19T07:28:18.314Z,318
2023-02-19T07:34:41.399Z,301
2023-02-19T07:41:01.375Z,426
2023-02-19T07:47:24.379Z,253
2023-02-19T07:53:44.364Z,90
2023-02-19T08:00:07.371Z,430
2023-02-19T08:06:27.412Z,348
2023-02-19T08:12:50.381Z,1046
2023-02-19T08:19:10.389Z,820
2023-02-19T08:25:33.411Z,536
2023-02-19T08:31:53.392Z,607
2023-02-19T08:38:16.466Z,636
2023-02-19T08:44:36.370Z,711
2023-02-19T08:50:59.367Z,699
2023-02-19T08:57:19.381Z,867
2023-02-19T09:03:42.338Z,1013
2023-02-19T09:10:02.362Z,666
2023-02-19T09:16:25.534Z,1986
2023-02-19T09:22:45.539Z,1490
2023-02-19T09:29:08.404Z,1423
2023-02-19T09:35:28.637Z,1827
2023-02-19T09:41:51.416Z,1419
2023-02-19T09:48:11.367Z,1557
2023-02-19T09:54:34.380Z,1341
2023-02-19T10:10:59.282Z,607
2023-02-19T10:17:19.348Z,581
2023-02-19T10:23:42.328Z,1176
2023-02-19T10:30:02.392Z,1073
2023-02-19T10:36:25.382Z,1691
2023-02-19T10:42:45.429Z,1310
2023-02-19T10:49:08.353Z,2887
2023-02-19T10:55:28.350Z,2208
2023-02-19T11:01:51.369Z,677
2023-02-19T11:08:11.325Z,809
2023-02-19T11:14:34.409Z,788
2023-02-19T11:20:54.400Z,1008
2023-02-19T11:27:17.374Z,2338
2023-02-19T11:33:37.391Z,2881
2023-02-19T11:40:00.331Z,1310
2023-02-19T11:46:20.406Z,1154
2023-02-19T11:52:43.350Z,1076
2023-02-19T11:59:03.347Z,699
2023-02-19T12:05:26.504Z,1205
2023-02-19T12:11:46.367Z,1704
2023-02-19T12:18:09.397Z,1702
2023-02-19T12:24:29.362Z,2472
2023-02-19T12:30:52.400Z,2224
2023-02-19T12:37:12.395Z,1660
2023-02-19T12:43:35.354Z,2204
2023-02-19T12:49:55.358Z,2621
2023-02-19T12:56:18.354Z,2734
2023-02-19T13:02:38.368Z,3379
2023-02-19T13:09:06.563Z,3131
2023-02-19T13:15:21.335Z,2580
2023-02-19T13:21:44.393Z,2350
2023-02-19T13:28:04.411Z,2100
2023-02-19T13:34:27.424Z,1927
2023-02-19T13:40:47.424Z,1506
2023-02-19T13:47:10.341Z,811
2023-02-19T13:53:30.349Z,532
2023-02-19T13:59:53.395Z,602
2023-02-19T14:06:13.379Z,760
2023-02-19T14:12:36.376Z,1154
2023-02-19T14:18:56.381Z,1317
2023-02-19T14:25:19.378Z,1204
2023-02-19T14:31:39.465Z,1212
2023-02-19T14:38:02.389Z,1017
2023-02-19T14:44:22.423Z,768
2023-02-19T14:50:45.637Z,976
2023-02-19T14:57:05.726Z,813
2023-02-19T15:03:28.362Z,683
2023-02-19T15:09:48.427Z,577
2023-02-19T15:16:11.362Z,719
2023-02-19T15:22:31.378Z,1003
2023-02-19T15:39:00.245Z,453
2023-02-19T15:45:20.369Z,517
2023-02-19T15:51:43.415Z,508
2023-02-19T15:58:03.418Z,511
2023-02-19T16:04:26.378Z,236
2023-02-19T16:10:46.378Z,143
2023-02-19T16:17:09.323Z,97
2023-02-19T16:23:29.425Z,100
2023-02-19T16:29:52.364Z,75
2023-02-19T16:36:12.353Z,65
2023-02-19T16:42:35.706Z,42
2023-02-19T16:48:55.407Z,25
2023-02-19T16:55:18.418Z,14
2023-02-19T17:01:38.357Z,6
2023-02-19T17:08:01.378Z,3
2023-02-19T17:14:21.421Z,1
2023-02-19T17:20:44.374Z,1
2023-02-19T17:27:04.409Z,0
2023-02-19T17:33:27.349Z,0
2023-02-19T17:39:47.410Z,0
2023-02-19T17:46:10.443Z,0
2023-02-19T17:52:30.399Z,0
2023-02-19T17:58:53.490Z,0
2023-02-19T18:05:13.352Z,0
2023-02-19T18:11:37.441Z,0
2023-02-19T18:17:56.349Z,0
2023-02-19T18:24:19.378Z,0
2023-02-19T18:30:39.574Z,0
2023-02-19T18:37:02.548Z,0
2023-02-19T18:43:22.366Z,0
2023-02-19T18:49:45.604Z,0
2023-02-19T18:56:05.452Z,0
2023-02-19T19:02:33.795Z,0
2023-02-19T19:08:48.414Z,0
2023-02-19T19:15:11.444Z,0
2023-02-19T19:21:31.369Z,0
2023-02-19T19:27:54.388Z,0
2023-02-19T19:34:14.359Z,0
2023-02-19T19:40:37.366Z,0
2023-02-19T19:46:57.434Z,0
2023-02-19T19:53:20.333Z,0
2023-02-19T19:59:40.358Z,0
2023-02-19T20:06:03.378Z,0
2023-02-19T20:12:23.400Z,0
2023-02-19T20:18:46.396Z,0
2023-02-19T20:25:06.377Z,0
2023-02-19T20:31:29.479Z,0
2023-02-19T20:54:17.247Z,0
2023-02-19T21:00:37.319Z,0
2023-02-19T21:07:00.427Z,0
2023-02-19T21:13:20.443Z,0
2023-02-19T21:19:43.393Z,0
2023-02-19T21:26:03.422Z,0
2023-02-19T21:32:26.443Z,0
2023-02-19T21:38:46.451Z,0
2023-02-19T21:45:09.367Z,0
2023-02-19T21:51:29.353Z,0
2023-02-19T21:57:52.418Z,0
2023-02-19T22:04:12.422Z,0
2023-02-19T22:10:35.429Z,0
2023-02-19T22:16:55.355Z,0
2023-02-19T22:23:18.325Z,0
2023-02-19T22:29:38.456Z,0
2023-02-19T22:36:01.479Z,0
2023-02-19T22:42:21.448Z,0
2023-02-19T22:48:44.370Z,0
2023-02-19T22:55:04.406Z,0
2023-02-19T23:20:39.326Z,0
2023-02-19T23:26:59.361Z,0
2023-02-19T23:33:22.351Z,0
2023-02-19T23:39:42.563Z,0
2023-02-19T23:46:05.453Z,0
2023-02-19T23:52:25.465Z,0
2023-02-19T23:58:48.320Z,0
